Sumihiro Maru — JD3168 — position and weather

sailwx.info

Track history (hours):
 
Tides and Currents Weather Stations Pressure Air Temp Water Temp Dewpoint Dewpoint Depression Visibility Wind Speed Wind Dir Waves Ship Positions

Sumihiro Maru

Last reported at 2017-Nov-11 10:30 UTC. Time now 2017-Nov-22 11:05 UTC.
Position N 34°36' E 134°53'.
Warning: this ship's position is 11 days out of date.

Length 63 m; draft 4 m.

Type: Cargo ship. MMSI: 431002283.

Date/timePositionNaut miles runAvg speedWind from/ knotsBaromVisibWave heightAir tempDewpointWater temp
2017-Nov-11 10:30N 34°36' E 134°53'710.5
2017-Nov-11 09:51N 34°37' E 135°01'410.5
2017-Nov-11 09:30N 34°36' E 135°05'611.5
2017-Nov-11 09:00N 34°34' E 135°12'611.8
2017-Nov-11 08:30N 34°33' E 135°19'5 9.0
2017-Nov-11 07:56N 34°31' E 135°24'0 0.0
2017-Nov-11 01:45N 34°31' E 135°24'2 5.8
2017-Nov-11 01:29N 34°32' E 135°24'4 8.9
2017-Nov-11 01:00N 34°31' E 135°19'510.2
2017-Nov-11 00:29N 34°28' E 135°14'5 9.7
2017-Nov-10 23:58N 34°25' E 135°09'  
2017-Nov-07 09:36N 35°10' E 139°46'110.6
2017-Nov-07 09:29N 35°11' E 139°46'510.7
2017-Nov-07 09:00N 35°16' E 139°46'611.0
2017-Nov-07 08:30N 35°21' E 139°43'510.3
2017-Nov-07 08:00N 35°26' E 139°45'510.6
2017-Nov-07 07:30N 35°29' E 139°50'5 0.1
2017-Nov-05 18:43N 35°32' E 139°54'211.1
2017-Nov-05 18:30N 35°30' E 139°53'611.1
2017-Nov-05 18:01N 35°26' E 139°48'611.4
2017-Nov-05 17:31N 35°21' E 139°45'510.6
2017-Nov-05 17:00N 35°16' E 139°46'510.4
2017-Nov-05 16:30N 35°11' E 139°46'5 9.6
2017-Nov-05 16:00N 35°06' E 139°44'510.4
2017-Nov-05 15:31N 35°01' E 139°42'610.7
2017-Nov-05 15:00N 34°58' E 139°36'  
Track history (hours):
 
Tides and Currents Weather Stations Pressure Air Temp Water Temp Dewpoint Dewpoint Depression Visibility Wind Speed Wind Dir Waves Ship Positions

Sumihiro Maru

Last reported at 2017-Nov-11 10:30 UTC. Time now 2017-Nov-22 11:05 UTC.
Position N 34°36' E 134°53'.
Warning: this ship's position is 11 days out of date.

Length 63 m; draft 4 m.

Type: Cargo ship. MMSI: 431002283.

Date/timePositionNaut miles runAvg speedWind from/ knotsBaromVisibWave heightAir tempDewpointWater temp
2017-Nov-11 10:30N 34°36' E 134°53'710.5
2017-Nov-11 09:51N 34°37' E 135°01'410.5
2017-Nov-11 09:30N 34°36' E 135°05'611.5
2017-Nov-11 09:00N 34°34' E 135°12'611.8
2017-Nov-11 08:30N 34°33' E 135°19'5 9.0
2017-Nov-11 07:56N 34°31' E 135°24'0 0.0
2017-Nov-11 01:45N 34°31' E 135°24'2 5.8
2017-Nov-11 01:29N 34°32' E 135°24'4 8.9
2017-Nov-11 01:00N 34°31' E 135°19'510.2
2017-Nov-11 00:29N 34°28' E 135°14'5 9.7
2017-Nov-10 23:58N 34°25' E 135°09'  
2017-Nov-07 09:36N 35°10' E 139°46'110.6
2017-Nov-07 09:29N 35°11' E 139°46'510.7
2017-Nov-07 09:00N 35°16' E 139°46'611.0
2017-Nov-07 08:30N 35°21' E 139°43'510.3
2017-Nov-07 08:00N 35°26' E 139°45'510.6
2017-Nov-07 07:30N 35°29' E 139°50'5 0.1
2017-Nov-05 18:43N 35°32' E 139°54'211.1
2017-Nov-05 18:30N 35°30' E 139°53'611.1
2017-Nov-05 18:01N 35°26' E 139°48'611.4
2017-Nov-05 17:31N 35°21' E 139°45'510.6
2017-Nov-05 17:00N 35°16' E 139°46'510.4
2017-Nov-05 16:30N 35°11' E 139°46'5 9.6
2017-Nov-05 16:00N 35°06' E 139°44'510.4
2017-Nov-05 15:31N 35°01' E 139°42'610.7
2017-Nov-05 15:00N 34°58' E 139°36'  

Dump ship's entire track history